createdAt,value
2017-10-07T00:00:38.868Z,0.00
2017-10-07T00:01:38.863Z,0.00
2017-10-07T00:02:38.860Z,0.00
2017-10-07T00:03:38.854Z,0.00
2017-10-07T00:04:38.849Z,0.00
2017-10-07T00:05:38.846Z,0.00
2017-10-07T00:06:38.846Z,0.00
2017-10-07T00:07:38.839Z,0.00
2017-10-07T00:08:38.835Z,0.00
2017-10-07T00:09:38.831Z,0.00
2017-10-07T00:10:38.822Z,0.00
2017-10-07T00:11:38.819Z,0.00
2017-10-07T00:12:38.812Z,0.00
2017-10-07T00:13:38.809Z,0.00
2017-10-07T00:14:38.808Z,0.00
2017-10-07T00:15:38.804Z,0.00
2017-10-07T00:16:38.797Z,0.00
2017-10-07T00:17:38.794Z,0.00
2017-10-07T00:18:38.790Z,0.00
2017-10-07T00:19:38.785Z,0.00
2017-10-07T00:20:38.781Z,0.00
2017-10-07T00:21:38.776Z,0.00
2017-10-07T00:22:38.767Z,0.00
2017-10-07T00:23:38.761Z,0.00
2017-10-07T00:24:38.758Z,0.00
2017-10-07T00:25:38.753Z,0.00
2017-10-07T00:26:38.749Z,0.00
2017-10-07T00:27:38.744Z,0.00
2017-10-07T00:28:38.738Z,0.00
2017-10-07T00:29:38.734Z,0.00
2017-10-07T00:30:38.734Z,0.00
2017-10-07T00:31:38.729Z,0.00
2017-10-07T00:32:38.724Z,0.00
2017-10-07T00:33:38.723Z,0.00
2017-10-07T00:34:38.716Z,0.00
2017-10-07T00:35:38.711Z,0.00
2017-10-07T00:36:38.707Z,0.00
2017-10-07T00:37:38.701Z,0.00
2017-10-07T00:38:38.693Z,0.00
2017-10-07T00:39:38.687Z,0.00
2017-10-07T00:40:38.683Z,0.00
2017-10-07T00:41:38.679Z,0.00
2017-10-07T00:42:38.674Z,0.00
2017-10-07T00:43:38.669Z,0.00
2017-10-07T00:44:38.664Z,0.00
2017-10-07T00:45:38.660Z,0.00
2017-10-07T00:46:38.660Z,0.00
2017-10-07T00:47:38.655Z,0.00
2017-10-07T00:48:38.649Z,0.00
2017-10-07T00:49:38.646Z,0.00
2017-10-07T00:50:38.643Z,0.00
2017-10-07T00:51:38.637Z,0.00
2017-10-07T00:52:38.632Z,0.00
2017-10-07T00:53:38.627Z,0.00
2017-10-07T00:54:38.619Z,0.00
2017-10-07T00:55:38.614Z,0.00
2017-10-07T00:56:38.609Z,0.00
2017-10-07T00:57:38.604Z,0.00
2017-10-07T00:58:38.600Z,0.00
2017-10-07T00:59:38.596Z,0.00
2017-10-07T01:00:38.591Z,0.00
2017-10-07T01:01:38.590Z,0.00
2017-10-07T01:02:38.586Z,0.00
2017-10-07T01:03:38.581Z,0.00
2017-10-07T01:04:38.577Z,0.00
2017-10-07T01:05:38.573Z,0.00
2017-10-07T01:06:38.566Z,0.00
2017-10-07T01:07:38.562Z,0.00
2017-10-07T01:08:38.557Z,0.00
2017-10-07T01:09:38.554Z,0.00
2017-10-07T01:10:38.546Z,0.00
2017-10-07T01:11:38.540Z,0.00
2017-10-07T01:12:38.535Z,0.00
2017-10-07T01:13:38.530Z,0.00
2017-10-07T01:14:38.531Z,0.00
2017-10-07T01:15:38.525Z,0.00
2017-10-07T01:16:38.524Z,0.00
2017-10-07T01:17:38.517Z,0.00
2017-10-07T01:18:38.508Z,0.00
2017-10-07T01:19:38.504Z,0.00
2017-10-07T01:20:38.499Z,0.00
2017-10-07T01:21:38.494Z,0.00
2017-10-07T01:22:38.491Z,0.00
2017-10-07T01:23:38.484Z,0.00
2017-10-07T01:24:38.481Z,0.00
2017-10-07T01:25:38.476Z,0.00
2017-10-07T01:26:38.476Z,0.00
2017-10-07T01:27:38.472Z,0.00
2017-10-07T01:28:38.465Z,0.00
2017-10-07T01:29:38.462Z,0.00
2017-10-07T01:30:38.458Z,0.00
2017-10-07T01:31:38.454Z,0.00
2017-10-07T01:32:38.448Z,0.00
2017-10-07T01:33:38.443Z,0.00
2017-10-07T01:34:38.434Z,0.00
2017-10-07T01:35:38.431Z,0.00
2017-10-07T01:36:38.424Z,0.00
2017-10-07T01:37:38.420Z,0.00
2017-10-07T01:38:38.415Z,0.00
2017-10-07T01:39:38.412Z,0.00
2017-10-07T01:40:38.406Z,0.00
2017-10-07T01:41:38.402Z,0.00
2017-10-07T01:42:38.401Z,0.00
2017-10-07T01:43:38.395Z,0.00
2017-10-07T01:44:38.391Z,0.00
2017-10-07T01:45:38.387Z,0.00
2017-10-07T01:46:38.381Z,0.00
2017-10-07T01:47:38.377Z,0.00
2017-10-07T01:48:38.370Z,0.00
2017-10-07T01:49:38.367Z,0.00
2017-10-07T01:50:38.357Z,0.00
2017-10-07T01:51:38.353Z,0.00
2017-10-07T01:52:38.348Z,0.00
2017-10-07T01:53:38.341Z,0.00
2017-10-07T01:54:38.338Z,0.00
2017-10-07T01:55:38.333Z,0.00
2017-10-07T01:56:38.325Z,0.00
2017-10-07T01:57:38.322Z,0.00
2017-10-07T01:58:38.326Z,0.00
2017-10-07T01:59:38.318Z,0.00
2017-10-07T02:00:38.311Z,0.00
2017-10-07T02:01:38.306Z,0.00
2017-10-07T02:02:38.303Z,0.00
2017-10-07T02:03:38.298Z,0.00
2017-10-07T02:04:38.291Z,0.00
2017-10-07T02:05:38.287Z,0.00
2017-10-07T02:06:38.277Z,0.00
2017-10-07T02:07:38.277Z,0.00
2017-10-07T02:08:38.267Z,0.00
2017-10-07T02:09:38.262Z,0.00
2017-10-07T02:10:38.257Z,0.00
2017-10-07T02:11:38.252Z,0.00
2017-10-07T02:12:38.246Z,0.00
2017-10-07T02:13:38.241Z,0.00
2017-10-07T02:14:38.240Z,0.00
2017-10-07T02:15:38.237Z,0.00
2017-10-07T02:16:38.229Z,0.00
2017-10-07T02:17:38.225Z,0.00
2017-10-07T02:18:38.218Z,0.00
2017-10-07T02:19:38.211Z,0.00
2017-10-07T02:20:38.206Z,0.00
2017-10-07T02:21:38.201Z,0.00
2017-10-07T02:22:38.199Z,0.00
2017-10-07T02:23:38.213Z,0.00
2017-10-07T02:24:38.190Z,0.00
2017-10-07T02:25:38.185Z,0.00
2017-10-07T02:26:38.181Z,0.00
2017-10-07T02:27:38.176Z,0.00
2017-10-07T02:28:38.171Z,0.00
2017-10-07T02:29:38.165Z,0.00
2017-10-07T02:30:38.156Z,0.00
2017-10-07T02:31:38.152Z,0.00
2017-10-07T02:32:38.145Z,0.00
2017-10-07T02:33:38.142Z,0.00
2017-10-07T02:34:38.137Z,0.00
2017-10-07T02:35:38.133Z,0.00
2017-10-07T02:36:38.123Z,0.00
2017-10-07T02:37:38.119Z,0.00
2017-10-07T02:38:38.119Z,0.00
2017-10-07T02:39:38.114Z,0.00
2017-10-07T02:40:38.109Z,0.00
2017-10-07T02:41:38.104Z,0.00
2017-10-07T02:42:38.099Z,0.00
2017-10-07T02:43:38.094Z,0.00
2017-10-07T02:44:38.089Z,0.00
2017-10-07T02:45:38.083Z,0.00
2017-10-07T02:46:38.102Z,0.00
2017-10-07T02:47:38.069Z,0.00
2017-10-07T02:48:38.064Z,0.00
2017-10-07T02:49:38.059Z,0.00
2017-10-07T02:50:38.054Z,0.00
2017-10-07T02:51:38.050Z,0.00
2017-10-07T02:52:38.045Z,0.00
2017-10-07T02:53:38.040Z,0.00
2017-10-07T02:54:38.044Z,0.00
2017-10-07T02:55:38.045Z,0.00
2017-10-07T02:56:38.028Z,0.00
2017-10-07T02:57:38.022Z,0.00
2017-10-07T02:58:38.017Z,0.00
2017-10-07T02:59:38.014Z,0.00
2017-10-07T03:00:38.007Z,0.00
2017-10-07T03:01:38.003Z,0.00
2017-10-07T03:02:37.994Z,0.00
2017-10-07T03:03:37.989Z,0.00
2017-10-07T03:04:37.982Z,0.00
2017-10-07T03:05:37.979Z,0.00
2017-10-07T03:06:37.974Z,0.00
2017-10-07T03:07:37.970Z,0.00
2017-10-07T03:08:37.963Z,0.00
2017-10-07T03:09:37.958Z,0.00
2017-10-07T03:10:37.958Z,0.00
2017-10-07T03:11:37.954Z,0.00
2017-10-07T03:12:37.947Z,0.00
2017-10-07T03:13:37.943Z,0.00
2017-10-07T03:14:37.938Z,0.00
2017-10-07T03:15:37.933Z,0.00
2017-10-07T03:16:37.926Z,0.00
2017-10-07T03:17:37.923Z,0.00
2017-10-07T03:18:37.914Z,0.00
2017-10-07T03:19:37.908Z,0.00
2017-10-07T03:20:37.925Z,0.00
2017-10-07T03:21:37.899Z,0.00
2017-10-07T03:22:37.894Z,0.00
2017-10-07T03:23:37.888Z,0.00
2017-10-07T03:24:37.882Z,0.00
2017-10-07T03:25:37.878Z,0.00
2017-10-07T03:26:37.876Z,0.00
2017-10-07T03:27:37.872Z,0.00
2017-10-07T03:28:37.865Z,0.00
2017-10-07T03:29:37.860Z,0.00
2017-10-07T03:30:37.864Z,0.00
2017-10-07T03:31:37.851Z,0.00
2017-10-07T03:32:37.846Z,0.00
2017-10-07T03:33:37.841Z,0.00
2017-10-07T03:34:37.831Z,0.00
2017-10-07T03:35:37.827Z,0.00
2017-10-07T03:36:37.821Z,0.00
2017-10-07T03:37:37.816Z,0.00
2017-10-07T03:38:37.814Z,0.00
2017-10-07T03:39:37.806Z,0.00
2017-10-07T03:40:37.800Z,0.00
2017-10-07T03:41:37.796Z,0.00
2017-10-07T03:42:37.794Z,0.00
2017-10-07T03:43:37.788Z,0.00
2017-10-07T03:44:37.783Z,0.00
2017-10-07T03:45:37.777Z,0.00
2017-10-07T03:46:37.773Z,0.00
2017-10-07T03:47:37.768Z,0.00
2017-10-07T03:48:37.760Z,0.00
2017-10-07T03:49:37.758Z,0.00
2017-10-07T03:50:37.748Z,0.00
2017-10-07T03:51:37.742Z,0.00
2017-10-07T03:52:37.738Z,0.00
2017-10-07T03:53:37.733Z,0.00
2017-10-07T03:54:37.727Z,0.00
2017-10-07T03:55:37.723Z,0.00
2017-10-07T03:56:37.716Z,0.00
2017-10-07T03:57:37.712Z,0.00
2017-10-07T03:58:37.710Z,0.00
2017-10-07T03:59:37.708Z,0.00
2017-10-07T04:00:37.700Z,0.00
2017-10-07T04:01:37.695Z,0.00
2017-10-07T04:02:37.689Z,0.00
2017-10-07T04:03:37.685Z,0.00
2017-10-07T04:04:37.679Z,0.00
2017-10-07T04:05:37.673Z,0.00
2017-10-07T04:06:37.668Z,0.00
2017-10-07T04:07:37.659Z,0.00
2017-10-07T04:08:37.653Z,0.00
2017-10-07T04:09:37.648Z,0.00
2017-10-07T04:10:37.642Z,0.00
2017-10-07T04:11:37.657Z,0.00
2017-10-07T04:12:37.633Z,0.00
2017-10-07T04:13:37.626Z,0.00
2017-10-07T04:14:37.626Z,0.00
2017-10-07T04:15:37.621Z,0.00
2017-10-07T04:16:37.631Z,0.00
2017-10-07T04:17:37.610Z,0.00
2017-10-07T04:18:37.605Z,0.00
2017-10-07T04:19:37.600Z,0.00
2017-10-07T04:20:37.594Z,0.00
2017-10-07T04:21:37.589Z,0.00
2017-10-07T04:22:37.581Z,0.00
2017-10-07T04:23:37.576Z,0.00
2017-10-07T04:24:37.568Z,0.00
2017-10-07T04:25:37.564Z,0.00
2017-10-07T04:26:37.563Z,0.00
2017-10-07T04:27:37.558Z,0.00
2017-10-07T04:28:37.551Z,0.00
2017-10-07T04:29:37.547Z,0.00
2017-10-07T04:30:37.537Z,0.00
2017-10-07T04:31:37.533Z,0.00
2017-10-07T04:32:37.527Z,0.00
2017-10-07T04:33:37.522Z,0.00
2017-10-07T04:34:37.517Z,0.00
2017-10-07T04:35:37.512Z,0.00
2017-10-07T04:36:37.507Z,0.00
2017-10-07T04:37:37.501Z,0.00
2017-10-07T04:38:37.500Z,0.00
2017-10-07T04:39:37.495Z,0.00
2017-10-07T04:40:37.489Z,0.00
2017-10-07T04:41:37.482Z,0.00
2017-10-07T04:42:37.479Z,0.00
2017-10-07T04:43:37.474Z,0.00
2017-10-07T04:44:37.466Z,0.00
2017-10-07T04:45:37.462Z,0.00
2017-10-07T04:46:37.453Z,0.00
2017-10-07T04:47:37.448Z,0.00
2017-10-07T04:48:37.453Z,0.00
2017-10-07T04:49:37.436Z,0.00
2017-10-07T04:50:37.430Z,0.00
2017-10-07T04:51:37.428Z,0.00
2017-10-07T04:52:37.421Z,0.00
2017-10-07T04:53:37.416Z,0.00
2017-10-07T04:54:37.415Z,0.00
2017-10-07T04:55:37.409Z,0.00
2017-10-07T04:56:37.403Z,0.00
2017-10-07T04:57:37.402Z,0.00
2017-10-07T04:58:37.394Z,0.00
2017-10-07T04:59:37.390Z,0.00
2017-10-07T05:00:37.386Z,0.00
2017-10-07T05:01:37.378Z,0.00
2017-10-07T05:02:37.369Z,0.00
2017-10-07T05:03:37.366Z,0.00
2017-10-07T05:04:37.358Z,0.00
2017-10-07T05:05:37.352Z,0.00
2017-10-07T05:06:37.348Z,0.00
2017-10-07T05:07:37.344Z,0.00
2017-10-07T05:08:37.336Z,0.00
2017-10-07T05:09:37.333Z,0.00
2017-10-07T05:10:37.332Z,0.00
2017-10-07T05:11:37.327Z,0.00
2017-10-07T05:12:37.321Z,0.00
2017-10-07T05:13:37.315Z,0.00
2017-10-07T05:14:37.310Z,0.00
2017-10-07T05:15:37.306Z,0.00
2017-10-07T05:16:37.300Z,0.00
2017-10-07T05:17:37.295Z,0.00
2017-10-07T05:18:37.286Z,4.00
2017-10-07T05:19:37.281Z,4.00
2017-10-07T05:20:37.275Z,0.00
2017-10-07T05:21:37.270Z,4.00
2017-10-07T05:22:37.265Z,8.00
2017-10-07T05:23:37.259Z,4.00
2017-10-07T05:24:37.253Z,8.00
2017-10-07T05:25:37.250Z,8.00
2017-10-07T05:26:37.249Z,12.00
2017-10-07T05:27:37.244Z,16.00
2017-10-07T05:28:37.238Z,20.00
2017-10-07T05:29:37.232Z,24.00
2017-10-07T05:30:37.222Z,28.00
2017-10-07T05:31:37.219Z,36.00
2017-10-07T05:32:37.213Z,40.00
2017-10-07T05:33:37.208Z,52.00
2017-10-07T05:34:37.206Z,56.00
2017-10-07T05:35:37.201Z,68.00
2017-10-07T05:36:37.195Z,76.00
2017-10-07T05:37:37.190Z,84.00
2017-10-07T05:38:37.184Z,92.00
2017-10-07T05:39:37.181Z,104.00
2017-10-07T05:40:37.174Z,112.00
2017-10-07T05:41:37.170Z,120.00
2017-10-07T05:42:37.159Z,132.00
2017-10-07T05:43:37.153Z,148.00
2017-10-07T05:44:37.148Z,160.00
2017-10-07T05:45:37.143Z,172.00
2017-10-07T05:46:37.138Z,192.00
2017-10-07T05:47:37.133Z,208.00
2017-10-07T05:48:37.127Z,232.00
2017-10-07T05:49:37.120Z,248.00
2017-10-07T05:50:37.120Z,260.00
2017-10-07T05:51:37.117Z,272.00
2017-10-07T05:52:37.108Z,296.00
2017-10-07T05:53:37.104Z,320.00
2017-10-07T05:54:37.100Z,340.00
2017-10-07T05:55:37.099Z,356.00
2017-10-07T05:56:37.087Z,372.00
2017-10-07T05:57:37.082Z,388.00
2017-10-07T05:58:37.072Z,408.00
2017-10-07T05:59:37.072Z,372.00
2017-10-07T06:00:37.061Z,360.00
2017-10-07T06:01:37.057Z,408.00
2017-10-07T06:02:37.052Z,472.00
2017-10-07T06:03:37.047Z,496.00
2017-10-07T06:04:37.040Z,524.00
2017-10-07T06:05:37.033Z,564.00
2017-10-07T06:06:37.034Z,592.00
2017-10-07T06:07:37.031Z,604.00
2017-10-07T06:08:37.023Z,612.00
2017-10-07T06:09:37.018Z,608.00
2017-10-07T06:10:37.014Z,632.00
2017-10-07T06:11:37.007Z,700.00
2017-10-07T06:12:37.002Z,788.00
2017-10-07T06:13:36.996Z,880.00
2017-10-07T06:14:36.987Z,952.00
2017-10-07T06:15:36.983Z,1012.00
2017-10-07T06:16:36.976Z,1056.00
2017-10-07T06:17:36.971Z,1096.00
2017-10-07T06:18:36.966Z,1188.00
2017-10-07T06:19:36.961Z,1296.00
2017-10-07T06:20:36.956Z,1416.00
2017-10-07T06:21:36.950Z,1504.00
2017-10-07T06:22:36.949Z,1516.00
2017-10-07T06:23:36.943Z,1484.00
2017-10-07T06:24:36.938Z,1520.00
2017-10-07T06:25:36.933Z,1584.00
2017-10-07T06:26:36.928Z,1608.00
2017-10-07T06:27:36.923Z,1692.00
2017-10-07T06:28:36.917Z,1776.00
2017-10-07T06:29:36.912Z,1864.00
2017-10-07T06:30:36.903Z,2056.00
2017-10-07T06:31:36.898Z,2272.00
2017-10-07T06:32:36.891Z,2440.00
2017-10-07T06:33:36.887Z,2480.00
2017-10-07T06:34:36.887Z,2660.00
2017-10-07T06:35:36.884Z,2908.00
2017-10-07T06:36:36.876Z,3112.00
2017-10-07T06:37:36.871Z,3420.00
2017-10-07T06:38:36.871Z,4124.00
2017-10-07T06:39:36.856Z,6044.00
2017-10-07T06:40:36.851Z,6168.00
2017-10-07T06:41:36.846Z,4004.00
2017-10-07T06:42:36.842Z,3248.00
2017-10-07T06:43:36.840Z,3204.00
2017-10-07T06:44:36.837Z,2884.00
2017-10-07T06:45:36.829Z,2764.00
2017-10-07T06:46:36.828Z,3076.00
2017-10-07T06:47:36.823Z,3448.00
2017-10-07T06:48:36.817Z,3844.00
2017-10-07T06:49:36.813Z,4184.00
2017-10-07T06:50:36.809Z,4408.00
2017-10-07T06:51:36.804Z,4520.00
2017-10-07T06:52:36.799Z,4640.00
2017-10-07T06:53:36.795Z,4632.00
2017-10-07T06:54:36.785Z,4456.00
2017-10-07T06:55:36.782Z,4372.00
2017-10-07T06:56:36.777Z,4916.00
2017-10-07T06:57:36.774Z,5672.00
2017-10-07T06:58:36.768Z,5392.00
2017-10-07T06:59:36.764Z,4604.00
2017-10-07T07:00:36.761Z,6676.00
2017-10-07T07:01:36.755Z,5928.00
2017-10-07T07:02:36.756Z,4936.00
2017-10-07T07:03:36.754Z,3872.00
2017-10-07T07:04:36.748Z,3184.00
2017-10-07T07:05:36.744Z,2836.00
2017-10-07T07:06:36.741Z,2824.00
2017-10-07T07:07:36.736Z,2720.00
2017-10-07T07:08:36.732Z,3044.00
2017-10-07T07:09:36.729Z,3392.00
2017-10-07T07:10:36.719Z,3052.00
2017-10-07T07:11:36.717Z,3108.00
2017-10-07T07:12:36.712Z,2932.00
2017-10-07T07:13:36.710Z,2484.00
2017-10-07T07:14:36.705Z,2328.00
2017-10-07T07:15:36.700Z,2196.00
2017-10-07T07:16:36.699Z,2092.00
2017-10-07T07:17:36.694Z,2300.00
2017-10-07T07:18:36.694Z,2404.00
2017-10-07T07:19:36.714Z,2232.00
2017-10-07T07:20:36.687Z,2468.00
2017-10-07T07:21:36.682Z,2244.00
2017-10-07T07:22:36.678Z,2200.00
2017-10-07T07:23:36.680Z,2336.00
2017-10-07T07:24:36.668Z,2408.00
2017-10-07T07:25:36.665Z,2192.00
2017-10-07T07:26:36.658Z,2372.00
2017-10-07T07:27:36.654Z,3380.00
2017-10-07T07:28:36.650Z,3420.00
2017-10-07T07:29:36.644Z,3248.00
2017-10-07T07:30:36.642Z,3444.00
2017-10-07T07:31:36.637Z,3120.00
2017-10-07T07:32:36.633Z,3072.00
2017-10-07T07:33:36.628Z,3392.00
2017-10-07T07:34:36.629Z,3888.00
2017-10-07T07:35:36.624Z,4572.00
2017-10-07T07:36:36.620Z,4260.00
2017-10-07T07:37:36.615Z,4656.00
2017-10-07T07:38:36.608Z,4656.00
2017-10-07T07:39:36.606Z,5588.00
2017-10-07T07:40:36.599Z,5180.00
2017-10-07T07:41:36.596Z,5436.00
2017-10-07T07:42:36.597Z,5164.00
2017-10-07T07:43:36.593Z,4412.00
2017-10-07T07:44:36.587Z,3456.00
2017-10-07T07:45:36.590Z,3212.00
2017-10-07T07:46:36.580Z,2396.00
2017-10-07T07:47:36.578Z,2248.00
2017-10-07T07:48:36.572Z,2272.00
2017-10-07T07:49:36.569Z,1724.00
2017-10-07T07:50:36.560Z,1228.00
2017-10-07T07:51:36.556Z,1320.00
2017-10-07T07:52:36.553Z,1252.00
2017-10-07T07:53:36.549Z,1480.00
2017-10-07T07:54:36.545Z,1792.00
2017-10-07T07:55:36.543Z,1656.00
2017-10-07T07:56:36.538Z,2160.00
2017-10-07T07:57:36.533Z,2652.00
2017-10-07T07:58:36.533Z,2568.00
2017-10-07T07:59:36.529Z,3304.00
2017-10-07T08:00:36.544Z,3468.00
2017-10-07T08:01:36.520Z,3132.00
2017-10-07T08:02:36.517Z,3316.00
2017-10-07T08:03:36.514Z,3052.00
2017-10-07T08:04:36.510Z,3420.00
2017-10-07T08:05:36.508Z,3068.00
2017-10-07T08:06:36.497Z,3024.00
2017-10-07T08:07:36.491Z,4340.00
2017-10-07T08:08:36.488Z,3424.00
2017-10-07T08:09:36.486Z,3452.00
2017-10-07T08:10:36.480Z,3896.00
2017-10-07T08:11:36.478Z,5356.00
2017-10-07T08:12:36.472Z,7416.00
2017-10-07T08:13:36.469Z,7428.00
2017-10-07T08:14:36.469Z,7032.00
2017-10-07T08:15:36.470Z,7212.00
2017-10-07T08:16:36.461Z,6840.00
2017-10-07T08:17:36.456Z,6528.00
2017-10-07T08:18:36.455Z,6292.00
2017-10-07T08:19:36.449Z,6308.00
2017-10-07T08:20:36.447Z,5976.00
2017-10-07T08:21:36.442Z,5368.00
2017-10-07T08:22:36.434Z,4472.00
2017-10-07T08:23:36.431Z,4096.00
2017-10-07T08:24:36.426Z,4136.00
2017-10-07T08:25:36.424Z,4208.00
2017-10-07T08:26:36.421Z,4256.00
2017-10-07T08:27:36.418Z,4140.00
2017-10-07T08:28:36.413Z,4236.00
2017-10-07T08:29:36.410Z,3864.00
2017-10-07T08:30:36.411Z,4052.00
2017-10-07T08:31:36.406Z,5012.00
2017-10-07T08:32:36.404Z,5388.00
2017-10-07T08:33:36.400Z,5448.00
2017-10-07T08:34:36.403Z,5520.00
2017-10-07T08:35:36.395Z,5040.00
2017-10-07T08:36:36.390Z,6304.00
2017-10-07T08:37:36.387Z,6524.00
2017-10-07T08:38:36.381Z,5332.00
2017-10-07T08:39:36.378Z,4636.00
2017-10-07T08:40:36.373Z,4960.00
2017-10-07T08:41:36.370Z,3544.00
2017-10-07T08:42:36.370Z,2988.00
2017-10-07T08:43:36.369Z,2760.00
2017-10-07T08:44:36.364Z,3496.00
2017-10-07T08:45:36.363Z,3068.00
2017-10-07T08:46:36.355Z,2892.00
2017-10-07T08:47:36.353Z,3032.00
2017-10-07T08:48:36.348Z,2896.00
2017-10-07T08:49:36.345Z,2884.00
2017-10-07T08:50:36.344Z,3160.00
2017-10-07T08:51:36.340Z,3764.00
2017-10-07T08:52:36.334Z,3128.00
2017-10-07T08:53:36.332Z,3264.00
2017-10-07T08:54:36.333Z,3456.00
2017-10-07T08:55:36.328Z,3096.00
2017-10-07T08:56:36.325Z,2796.00
2017-10-07T08:57:36.322Z,2252.00
2017-10-07T08:58:36.320Z,3400.00
2017-10-07T08:59:36.315Z,3772.00
2017-10-07T09:00:36.311Z,2760.00
2017-10-07T09:01:36.309Z,2752.00
2017-10-07T09:02:36.302Z,2440.00
2017-10-07T09:03:36.299Z,2776.00
2017-10-07T09:04:36.292Z,2960.00
2017-10-07T09:05:36.291Z,3164.00
2017-10-07T09:06:36.288Z,3416.00
2017-10-07T09:07:36.285Z,3764.00
2017-10-07T09:08:36.280Z,4028.00
2017-10-07T09:09:36.275Z,4260.00
2017-10-07T09:10:36.276Z,4192.00
2017-10-07T09:11:36.274Z,3872.00
2017-10-07T09:12:36.269Z,3676.00
2017-10-07T09:13:36.266Z,3764.00
2017-10-07T09:14:36.263Z,4140.00
2017-10-07T09:15:36.259Z,4760.00
2017-10-07T09:16:36.255Z,6088.00
2017-10-07T09:17:36.252Z,6860.00
2017-10-07T09:18:36.244Z,5652.00
2017-10-07T09:19:36.245Z,4660.00
2017-10-07T09:20:36.236Z,4184.00
2017-10-07T09:21:36.234Z,3968.00
2017-10-07T09:22:36.229Z,4100.00
2017-10-07T09:23:36.232Z,4292.00
2017-10-07T09:24:36.223Z,4988.00
2017-10-07T09:25:36.219Z,5740.00
2017-10-07T09:26:36.221Z,6212.00
2017-10-07T09:27:36.218Z,6200.00
2017-10-07T09:28:36.212Z,6252.00
2017-10-07T09:29:36.209Z,6516.00
2017-10-07T09:30:36.217Z,6992.00
2017-10-07T09:31:36.202Z,7688.00
2017-10-07T09:32:36.198Z,8660.00
2017-10-07T09:33:36.197Z,8328.00
2017-10-07T09:34:36.188Z,7468.00
2017-10-07T09:35:36.189Z,6920.00
2017-10-07T09:36:36.182Z,6688.00
2017-10-07T09:37:36.179Z,6824.00
2017-10-07T09:38:36.177Z,6904.00
2017-10-07T09:39:36.178Z,6664.00
2017-10-07T09:40:36.169Z,6388.00
2017-10-07T09:41:36.168Z,6476.00
2017-10-07T09:42:36.168Z,6220.00
2017-10-07T09:43:36.167Z,5504.00
2017-10-07T09:44:36.163Z,5168.00
2017-10-07T09:45:36.161Z,4952.00
2017-10-07T09:46:36.155Z,5072.00
2017-10-07T09:47:36.169Z,5356.00
2017-10-07T09:48:36.148Z,5612.00
2017-10-07T09:49:36.145Z,5684.00
2017-10-07T09:50:36.147Z,5800.00
2017-10-07T09:51:36.146Z,5840.00
2017-10-07T09:52:36.140Z,5964.00
2017-10-07T09:53:36.138Z,6068.00
2017-10-07T09:54:36.138Z,5772.00
2017-10-07T09:55:36.133Z,5096.00
2017-10-07T09:56:36.130Z,4692.00
2017-10-07T09:57:36.127Z,4504.00
2017-10-07T09:58:36.121Z,4404.00
2017-10-07T09:59:36.118Z,4408.00
2017-10-07T10:00:36.116Z,3976.00
2017-10-07T10:01:36.112Z,3716.00
2017-10-07T10:02:36.111Z,4348.00
2017-10-07T10:03:36.107Z,4944.00
2017-10-07T10:04:36.104Z,5292.00
2017-10-07T10:05:36.105Z,6356.00
2017-10-07T10:06:36.103Z,7188.00
2017-10-07T10:07:36.099Z,7096.00
2017-10-07T10:08:36.097Z,6328.00
2017-10-07T10:09:36.098Z,6064.00
2017-10-07T10:10:36.091Z,6040.00
2017-10-07T10:11:36.089Z,5920.00
2017-10-07T10:12:36.085Z,5756.00
2017-10-07T10:13:36.096Z,5436.00
2017-10-07T10:14:36.075Z,5396.00
2017-10-07T10:15:36.073Z,5220.00
2017-10-07T10:16:36.069Z,4684.00
2017-10-07T10:17:36.066Z,4184.00
2017-10-07T10:18:36.064Z,3632.00
2017-10-07T10:19:36.061Z,2912.00
2017-10-07T10:20:36.056Z,2500.00
2017-10-07T10:21:36.055Z,2608.00
2017-10-07T10:22:36.056Z,2780.00
2017-10-07T10:23:36.054Z,2800.00
2017-10-07T10:24:36.049Z,2784.00
2017-10-07T10:25:36.047Z,2616.00
2017-10-07T10:26:36.044Z,2572.00
2017-10-07T10:27:36.041Z,2440.00
2017-10-07T10:28:36.037Z,2476.00
2017-10-07T10:29:36.034Z,2544.00
2017-10-07T10:30:36.027Z,2724.00
2017-10-07T10:31:36.025Z,2704.00
2017-10-07T10:32:36.020Z,2740.00
2017-10-07T10:33:36.017Z,3148.00
2017-10-07T10:34:36.014Z,3456.00
2017-10-07T10:35:36.010Z,3440.00
2017-10-07T10:36:36.009Z,3180.00
2017-10-07T10:37:36.004Z,2824.00
2017-10-07T10:38:36.004Z,2532.00
2017-10-07T10:39:36.001Z,2268.00
2017-10-07T10:40:35.996Z,2196.00
2017-10-07T10:41:35.995Z,2024.00
2017-10-07T10:42:35.993Z,1908.00
2017-10-07T10:43:35.988Z,1904.00
2017-10-07T10:44:35.984Z,2068.00
2017-10-07T10:45:35.978Z,2128.00
2017-10-07T10:46:35.976Z,2164.00
2017-10-07T10:47:35.968Z,1988.00
2017-10-07T10:48:35.963Z,2144.00
2017-10-07T10:49:35.960Z,2088.00
2017-10-07T10:50:35.963Z,2272.00
2017-10-07T10:51:35.959Z,3016.00
2017-10-07T10:52:35.951Z,2536.00
2017-10-07T10:53:35.948Z,2576.00
2017-10-07T10:54:35.941Z,2668.00
2017-10-07T10:55:35.937Z,2744.00
2017-10-07T10:56:35.930Z,2648.00
2017-10-07T10:57:35.928Z,2904.00
2017-10-07T10:58:35.924Z,2784.00
2017-10-07T10:59:35.919Z,3056.00
2017-10-07T11:00:35.915Z,2952.00
2017-10-07T11:01:35.910Z,2608.00
2017-10-07T11:02:35.910Z,2724.00
2017-10-07T11:03:35.905Z,3088.00
2017-10-07T11:04:35.902Z,2780.00
2017-10-07T11:05:35.898Z,2548.00
2017-10-07T11:06:35.899Z,2396.00
2017-10-07T11:07:35.890Z,2788.00
2017-10-07T11:08:35.885Z,2376.00
2017-10-07T11:09:35.881Z,2332.00
2017-10-07T11:10:35.876Z,2060.00
2017-10-07T11:11:35.868Z,2120.00
2017-10-07T11:12:35.863Z,2248.00
2017-10-07T11:13:35.860Z,1980.00
2017-10-07T11:14:35.854Z,1724.00
2017-10-07T11:15:35.851Z,1724.00
2017-10-07T11:16:35.845Z,1536.00
2017-10-07T11:17:35.841Z,1576.00
2017-10-07T11:18:35.841Z,1300.00
2017-10-07T11:19:35.836Z,1316.00
2017-10-07T11:20:35.832Z,1272.00
2017-10-07T11:21:35.827Z,1024.00
2017-10-07T11:22:35.822Z,1188.00
2017-10-07T11:23:35.821Z,1596.00
2017-10-07T11:24:35.813Z,1324.00
2017-10-07T11:25:35.807Z,1060.00
2017-10-07T11:26:35.806Z,940.00
2017-10-07T11:27:35.794Z,896.00
2017-10-07T11:28:35.790Z,1096.00
2017-10-07T11:29:35.783Z,1024.00
2017-10-07T11:30:35.780Z,1124.00
2017-10-07T11:31:35.775Z,1424.00
2017-10-07T11:32:35.770Z,1784.00
2017-10-07T11:33:35.765Z,1832.00
2017-10-07T11:34:35.766Z,1508.00
2017-10-07T11:35:35.760Z,1504.00
2017-10-07T11:36:35.754Z,1380.00
2017-10-07T11:37:35.748Z,1196.00
2017-10-07T11:38:35.746Z,968.00
2017-10-07T11:39:35.740Z,900.00
2017-10-07T11:40:35.734Z,1580.00
2017-10-07T11:41:35.730Z,1848.00
2017-10-07T11:42:35.721Z,1652.00
2017-10-07T11:43:35.717Z,1192.00
2017-10-07T11:44:35.711Z,1056.00
2017-10-07T11:45:35.705Z,1480.00
2017-10-07T11:46:35.702Z,1860.00
2017-10-07T11:47:35.695Z,2088.00
2017-10-07T11:48:35.691Z,2204.00
2017-10-07T11:49:35.686Z,1988.00
2017-10-07T11:50:35.685Z,1748.00
2017-10-07T11:51:35.682Z,2092.00
2017-10-07T11:52:35.674Z,2020.00
2017-10-07T11:53:35.671Z,1772.00
2017-10-07T11:54:35.666Z,2280.00
2017-10-07T11:55:35.661Z,2120.00
2017-10-07T11:56:35.657Z,1808.00
2017-10-07T11:57:35.651Z,1448.00
2017-10-07T11:58:35.643Z,1564.00
2017-10-07T11:59:35.638Z,2140.00
2017-10-07T12:00:35.632Z,1596.00
2017-10-07T12:01:35.628Z,1464.00
2017-10-07T12:02:35.622Z,1404.00
2017-10-07T12:03:35.618Z,1372.00
2017-10-07T12:04:35.611Z,1468.00
2017-10-07T12:05:35.607Z,1828.00
2017-10-07T12:06:35.608Z,2268.00
2017-10-07T12:07:35.603Z,2136.00
2017-10-07T12:08:35.595Z,1772.00
2017-10-07T12:09:35.592Z,1704.00
2017-10-07T12:10:35.586Z,1568.00
2017-10-07T12:11:35.583Z,1520.00
2017-10-07T12:12:35.576Z,1464.00
2017-10-07T12:13:35.572Z,1852.00
2017-10-07T12:14:35.567Z,1860.00
2017-10-07T12:15:35.559Z,1736.00
2017-10-07T12:16:35.553Z,1980.00
2017-10-07T12:17:35.548Z,1864.00
2017-10-07T12:18:35.543Z,1496.00
2017-10-07T12:19:35.538Z,1656.00
2017-10-07T12:20:35.533Z,1696.00
2017-10-07T12:21:35.528Z,1900.00
2017-10-07T12:22:35.528Z,1804.00
2017-10-07T12:23:35.522Z,2392.00
2017-10-07T12:24:35.517Z,2144.00
2017-10-07T12:25:35.512Z,1648.00
2017-10-07T12:26:35.506Z,2400.00
2017-10-07T12:27:35.503Z,1884.00
2017-10-07T12:28:35.496Z,1812.00
2017-10-07T12:29:35.494Z,1616.00
2017-10-07T12:30:35.485Z,2140.00
2017-10-07T12:31:35.477Z,2144.00
2017-10-07T12:32:35.473Z,2488.00
2017-10-07T12:33:35.468Z,2588.00
2017-10-07T12:34:35.464Z,4580.00
2017-10-07T12:35:35.459Z,4800.00
2017-10-07T12:36:35.454Z,3136.00
2017-10-07T12:37:35.448Z,2668.00